sensor_id;sensor_type;location;lat;lon;timestamp;P1;durP1;ratioP1;P2;durP2;ratioP2
2872;SDS011;1444;49.166;7.312;2023-12-22T00:02:18;3.00;;;0.90;;
2872;SDS011;1444;49.166;7.312;2023-12-22T00:04:46;2.30;;;1.10;;
2872;SDS011;1444;49.166;7.312;2023-12-22T00:07:14;2.40;;;0.60;;
2872;SDS011;1444;49.166;7.312;2023-12-22T00:09:41;3.50;;;0.90;;
2872;SDS011;1444;49.166;7.312;2023-12-22T00:12:08;1.80;;;0.73;;
2872;SDS011;1444;49.166;7.312;2023-12-22T00:14:35;6.90;;;1.10;;
2872;SDS011;1444;49.166;7.312;2023-12-22T00:17:02;3.00;;;0.90;;
2872;SDS011;1444;49.166;7.312;2023-12-22T00:19:29;1.93;;;1.13;;
2872;SDS011;1444;49.166;7.312;2023-12-22T00:21:56;6.67;;;1.30;;
2872;SDS011;1444;49.166;7.312;2023-12-22T00:24:24;2.10;;;0.70;;
2872;SDS011;1444;49.166;7.312;2023-12-22T00:26:51;4.60;;;0.97;;
2872;SDS011;1444;49.166;7.312;2023-12-22T00:29:18;7.47;;;0.80;;
2872;SDS011;1444;49.166;7.312;2023-12-22T00:31:45;3.30;;;1.27;;
2872;SDS011;1444;49.166;7.312;2023-12-22T00:34:12;4.47;;;0.97;;
2872;SDS011;1444;49.166;7.312;2023-12-22T00:36:39;4.40;;;1.10;;
2872;SDS011;1444;49.166;7.312;2023-12-22T00:39:06;2.90;;;0.87;;
2872;SDS011;1444;49.166;7.312;2023-12-22T00:41:35;5.30;;;0.87;;
2872;SDS011;1444;49.166;7.312;2023-12-22T00:44:02;8.10;;;1.27;;
2872;SDS011;1444;49.166;7.312;2023-12-22T00:46:28;5.73;;;1.17;;
2872;SDS011;1444;49.166;7.312;2023-12-22T00:48:55;2.43;;;0.97;;
2872;SDS011;1444;49.166;7.312;2023-12-22T00:51:22;4.50;;;1.63;;
2872;SDS011;1444;49.166;7.312;2023-12-22T00:53:49;6.17;;;1.40;;
2872;SDS011;1444;49.166;7.312;2023-12-22T00:56:16;9.97;;;1.77;;
2872;SDS011;1444;49.166;7.312;2023-12-22T00:58:44;5.70;;;1.27;;
2872;SDS011;1444;49.166;7.312;2023-12-22T01:01:11;7.73;;;1.43;;
2872;SDS011;1444;49.166;7.312;2023-12-22T01:03:37;4.63;;;1.40;;
2872;SDS011;1444;49.166;7.312;2023-12-22T01:06:04;6.47;;;1.37;;
2872;SDS011;1444;49.166;7.312;2023-12-22T01:08:31;3.37;;;1.43;;
2872;SDS011;1444;49.166;7.312;2023-12-22T01:10:58;2.40;;;1.67;;
2872;SDS011;1444;49.166;7.312;2023-12-22T01:13:24;4.87;;;1.73;;
2872;SDS011;1444;49.166;7.312;2023-12-22T01:15:53;6.33;;;1.67;;
2872;SDS011;1444;49.166;7.312;2023-12-22T01:18:19;3.00;;;1.93;;
2872;SDS011;1444;49.166;7.312;2023-12-22T01:20:46;5.70;;;2.30;;
2872;SDS011;1444;49.166;7.312;2023-12-22T01:23:14;4.00;;;1.50;;
2872;SDS011;1444;49.166;7.312;2023-12-22T01:25:41;22.50;;;3.53;;
2872;SDS011;1444;49.166;7.312;2023-12-22T01:28:07;4.00;;;1.27;;
2872;SDS011;1444;49.166;7.312;2023-12-22T01:30:34;20.63;;;2.70;;
2872;SDS011;1444;49.166;7.312;2023-12-22T01:33:03;6.07;;;1.47;;
2872;SDS011;1444;49.166;7.312;2023-12-22T01:35:30;8.63;;;2.10;;
2872;SDS011;1444;49.166;7.312;2023-12-22T01:37:56;8.00;;;2.03;;
2872;SDS011;1444;49.166;7.312;2023-12-22T01:40:23;4.67;;;1.70;;
2872;SDS011;1444;49.166;7.312;2023-12-22T01:42:50;6.47;;;1.30;;
2872;SDS011;1444;49.166;7.312;2023-12-22T01:45:17;8.30;;;1.30;;
2872;SDS011;1444;49.166;7.312;2023-12-22T01:47:44;3.77;;;1.63;;
2872;SDS011;1444;49.166;7.312;2023-12-22T01:50:13;7.77;;;1.50;;
2872;SDS011;1444;49.166;7.312;2023-12-22T01:52:41;6.53;;;1.50;;
2872;SDS011;1444;49.166;7.312;2023-12-22T01:55:10;2.57;;;1.00;;
2872;SDS011;1444;49.166;7.312;2023-12-22T01:57:38;4.23;;;1.07;;
2872;SDS011;1444;49.166;7.312;2023-12-22T02:00:07;8.93;;;1.63;;
2872;SDS011;1444;49.166;7.312;2023-12-22T02:02:34;5.77;;;1.10;;
2872;SDS011;1444;49.166;7.312;2023-12-22T02:05:03;26.07;;;2.60;;
2872;SDS011;1444;49.166;7.312;2023-12-22T02:07:32;7.13;;;1.37;;
2872;SDS011;1444;49.166;7.312;2023-12-22T02:09:59;5.23;;;1.90;;
2872;SDS011;1444;49.166;7.312;2023-12-22T02:12:28;10.63;;;1.40;;
2872;SDS011;1444;49.166;7.312;2023-12-22T02:14:55;2.70;;;1.17;;
2872;SDS011;1444;49.166;7.312;2023-12-22T02:17:23;1.80;;;0.93;;
2872;SDS011;1444;49.166;7.312;2023-12-22T02:19:55;10.80;;;3.50;;
2872;SDS011;1444;49.166;7.312;2023-12-22T02:22:23;13.57;;;1.43;;
2872;SDS011;1444;49.166;7.312;2023-12-22T02:24:51;2.20;;;1.30;;
2872;SDS011;1444;49.166;7.312;2023-12-22T02:27:22;1.60;;;0.90;;
2872;SDS011;1444;49.166;7.312;2023-12-22T02:29:54;2.97;;;1.40;;
2872;SDS011;1444;49.166;7.312;2023-12-22T02:32:27;25.33;;;2.80;;
2872;SDS011;1444;49.166;7.312;2023-12-22T02:34:57;6.83;;;1.27;;
2872;SDS011;1444;49.166;7.312;2023-12-22T02:37:27;2.93;;;1.10;;
2872;SDS011;1444;49.166;7.312;2023-12-22T02:39:56;15.27;;;2.37;;
2872;SDS011;1444;49.166;7.312;2023-12-22T02:42:24;5.70;;;1.87;;
2872;SDS011;1444;49.166;7.312;2023-12-22T02:44:55;4.80;;;1.27;;
2872;SDS011;1444;49.166;7.312;2023-12-22T02:47:22;3.43;;;1.13;;
2872;SDS011;1444;49.166;7.312;2023-12-22T02:49:49;10.30;;;2.57;;
2872;SDS011;1444;49.166;7.312;2023-12-22T02:52:16;5.27;;;1.43;;
2872;SDS011;1444;49.166;7.312;2023-12-22T02:54:43;4.60;;;1.47;;
2872;SDS011;1444;49.166;7.312;2023-12-22T02:57:13;4.07;;;1.70;;
2872;SDS011;1444;49.166;7.312;2023-12-22T02:59:40;8.23;;;1.30;;
2872;SDS011;1444;49.166;7.312;2023-12-22T03:02:07;9.20;;;2.30;;
2872;SDS011;1444;49.166;7.312;2023-12-22T03:04:34;8.83;;;1.50;;
2872;SDS011;1444;49.166;7.312;2023-12-22T03:07:01;14.60;;;2.47;;
2872;SDS011;1444;49.166;7.312;2023-12-22T03:09:28;4.73;;;1.83;;
2872;SDS011;1444;49.166;7.312;2023-12-22T03:11:55;11.63;;;1.70;;
2872;SDS011;1444;49.166;7.312;2023-12-22T03:14:28;7.13;;;1.67;;
2872;SDS011;1444;49.166;7.312;2023-12-22T03:16:55;12.50;;;1.83;;
2872;SDS011;1444;49.166;7.312;2023-12-22T03:19:21;6.80;;;2.03;;
2872;SDS011;1444;49.166;7.312;2023-12-22T03:21:49;6.03;;;1.30;;
2872;SDS011;1444;49.166;7.312;2023-12-22T03:24:15;6.37;;;1.90;;
2872;SDS011;1444;49.166;7.312;2023-12-22T03:26:43;6.50;;;1.83;;
2872;SDS011;1444;49.166;7.312;2023-12-22T03:29:10;10.20;;;2.67;;
2872;SDS011;1444;49.166;7.312;2023-12-22T03:31:38;14.33;;;2.77;;
2872;SDS011;1444;49.166;7.312;2023-12-22T03:34:05;7.33;;;2.27;;
2872;SDS011;1444;49.166;7.312;2023-12-22T03:36:33;10.40;;;1.70;;
2872;SDS011;1444;49.166;7.312;2023-12-22T03:39:00;11.30;;;2.10;;
2872;SDS011;1444;49.166;7.312;2023-12-22T03:41:27;16.17;;;2.97;;
2872;SDS011;1444;49.166;7.312;2023-12-22T03:43:55;8.13;;;1.87;;
2872;SDS011;1444;49.166;7.312;2023-12-22T03:46:22;5.63;;;2.20;;
2872;SDS011;1444;49.166;7.312;2023-12-22T03:48:50;17.03;;;2.07;;
2872;SDS011;1444;49.166;7.312;2023-12-22T03:51:18;10.13;;;1.70;;
2872;SDS011;1444;49.166;7.312;2023-12-22T03:53:45;4.57;;;2.40;;
2872;SDS011;1444;49.166;7.312;2023-12-22T03:56:12;7.33;;;2.07;;
2872;SDS011;1444;49.166;7.312;2023-12-22T03:58:39;12.93;;;2.87;;
2872;SDS011;1444;49.166;7.312;2023-12-22T04:01:05;9.63;;;2.77;;
2872;SDS011;1444;49.166;7.312;2023-12-22T04:03:33;4.87;;;1.93;;
2872;SDS011;1444;49.166;7.312;2023-12-22T04:06:02;3.73;;;1.63;;
2872;SDS011;1444;49.166;7.312;2023-12-22T04:08:29;13.33;;;2.87;;
2872;SDS011;1444;49.166;7.312;2023-12-22T04:10:56;11.73;;;3.20;;
2872;SDS011;1444;49.166;7.312;2023-12-22T04:13:23;3.63;;;1.30;;
2872;SDS011;1444;49.166;7.312;2023-12-22T04:15:50;6.90;;;3.00;;
2872;SDS011;1444;49.166;7.312;2023-12-22T04:18:17;7.60;;;1.90;;
2872;SDS011;1444;49.166;7.312;2023-12-22T04:20:44;11.20;;;1.93;;
2872;SDS011;1444;49.166;7.312;2023-12-22T04:23:12;7.37;;;2.23;;
2872;SDS011;1444;49.166;7.312;2023-12-22T04:25:39;14.40;;;3.10;;
2872;SDS011;1444;49.166;7.312;2023-12-22T04:28:05;6.77;;;2.20;;
2872;SDS011;1444;49.166;7.312;2023-12-22T04:30:33;12.63;;;2.67;;
2872;SDS011;1444;49.166;7.312;2023-12-22T04:33:00;9.03;;;2.40;;
2872;SDS011;1444;49.166;7.312;2023-12-22T04:35:27;8.80;;;2.70;;
2872;SDS011;1444;49.166;7.312;2023-12-22T04:37:54;14.50;;;3.00;;
2872;SDS011;1444;49.166;7.312;2023-12-22T04:40:22;4.70;;;2.33;;
2872;SDS011;1444;49.166;7.312;2023-12-22T04:42:49;4.80;;;2.03;;
2872;SDS011;1444;49.166;7.312;2023-12-22T04:45:16;6.13;;;2.00;;
2872;SDS011;1444;49.166;7.312;2023-12-22T04:47:43;10.33;;;1.70;;
2872;SDS011;1444;49.166;7.312;2023-12-22T04:50:10;11.93;;;2.73;;
2872;SDS011;1444;49.166;7.312;2023-12-22T04:52:37;9.63;;;3.17;;
2872;SDS011;1444;49.166;7.312;2023-12-22T04:55:04;10.97;;;3.07;;
2872;SDS011;1444;49.166;7.312;2023-12-22T04:57:32;7.27;;;1.90;;
2872;SDS011;1444;49.166;7.312;2023-12-22T04:59:59;3.57;;;1.60;;
2872;SDS011;1444;49.166;7.312;2023-12-22T05:02:26;14.33;;;2.30;;
2872;SDS011;1444;49.166;7.312;2023-12-22T05:04:54;19.00;;;2.37;;
2872;SDS011;1444;49.166;7.312;2023-12-22T05:07:20;9.17;;;2.63;;
2872;SDS011;1444;49.166;7.312;2023-12-22T05:09:47;6.33;;;1.80;;
2872;SDS011;1444;49.166;7.312;2023-12-22T05:12:14;16.03;;;3.03;;
2872;SDS011;1444;49.166;7.312;2023-12-22T05:14:42;6.33;;;2.23;;
2872;SDS011;1444;49.166;7.312;2023-12-22T05:17:09;14.90;;;3.40;;
2872;SDS011;1444;49.166;7.312;2023-12-22T05:19:36;15.27;;;3.23;;
2872;SDS011;1444;49.166;7.312;2023-12-22T05:22:03;2.83;;;1.50;;
2872;SDS011;1444;49.166;7.312;2023-12-22T05:24:30;27.63;;;3.70;;
2872;SDS011;1444;49.166;7.312;2023-12-22T05:26:57;11.50;;;2.63;;
2872;SDS011;1444;49.166;7.312;2023-12-22T05:29:24;11.67;;;2.70;;
2872;SDS011;1444;49.166;7.312;2023-12-22T05:31:52;18.37;;;3.33;;
2872;SDS011;1444;49.166;7.312;2023-12-22T05:34:19;11.90;;;3.13;;
2872;SDS011;1444;49.166;7.312;2023-12-22T05:36:46;17.23;;;2.30;;
2872;SDS011;1444;49.166;7.312;2023-12-22T05:39:12;14.70;;;2.20;;
2872;SDS011;1444;49.166;7.312;2023-12-22T05:41:39;7.90;;;1.60;;
2872;SDS011;1444;49.166;7.312;2023-12-22T05:44:06;30.67;;;2.27;;
2872;SDS011;1444;49.166;7.312;2023-12-22T05:46:35;12.17;;;3.60;;
2872;SDS011;1444;49.166;7.312;2023-12-22T05:49:04;18.20;;;3.27;;
2872;SDS011;1444;49.166;7.312;2023-12-22T05:51:35;8.23;;;3.03;;
2872;SDS011;1444;49.166;7.312;2023-12-22T05:54:03;20.27;;;2.60;;
2872;SDS011;1444;49.166;7.312;2023-12-22T05:56:30;15.43;;;2.80;;
2872;SDS011;1444;49.166;7.312;2023-12-22T05:58:57;37.20;;;5.97;;
2872;SDS011;1444;49.166;7.312;2023-12-22T06:01:24;17.70;;;2.80;;
2872;SDS011;1444;49.166;7.312;2023-12-22T06:03:52;16.93;;;4.50;;
2872;SDS011;1444;49.166;7.312;2023-12-22T06:06:20;30.13;;;3.90;;
2872;SDS011;1444;49.166;7.312;2023-12-22T06:08:47;8.80;;;2.90;;
2872;SDS011;1444;49.166;7.312;2023-12-22T06:11:13;7.70;;;2.20;;
2872;SDS011;1444;49.166;7.312;2023-12-22T06:13:40;15.23;;;2.50;;
2872;SDS011;1444;49.166;7.312;2023-12-22T06:16:10;7.17;;;2.70;;
2872;SDS011;1444;49.166;7.312;2023-12-22T06:18:38;17.10;;;2.77;;
2872;SDS011;1444;49.166;7.312;2023-12-22T06:21:04;13.83;;;3.50;;
2872;SDS011;1444;49.166;7.312;2023-12-22T06:23:33;14.80;;;3.10;;
2872;SDS011;1444;49.166;7.312;2023-12-22T06:25:59;18.67;;;3.93;;
2872;SDS011;1444;49.166;7.312;2023-12-22T06:28:27;23.57;;;3.90;;
2872;SDS011;1444;49.166;7.312;2023-12-22T06:30:54;13.70;;;3.40;;
2872;SDS011;1444;49.166;7.312;2023-12-22T06:33:21;27.37;;;3.57;;
2872;SDS011;1444;49.166;7.312;2023-12-22T06:35:48;7.20;;;2.33;;
2872;SDS011;1444;49.166;7.312;2023-12-22T06:38:18;11.33;;;3.10;;
2872;SDS011;1444;49.166;7.312;2023-12-22T06:40:46;12.00;;;4.20;;
2872;SDS011;1444;49.166;7.312;2023-12-22T06:43:13;37.93;;;7.53;;
2872;SDS011;1444;49.166;7.312;2023-12-22T06:45:40;10.90;;;2.93;;
2872;SDS011;1444;49.166;7.312;2023-12-22T06:48:06;26.00;;;5.23;;
2872;SDS011;1444;49.166;7.312;2023-12-22T06:50:34;13.70;;;2.97;;
2872;SDS011;1444;49.166;7.312;2023-12-22T06:53:02;18.90;;;3.53;;
2872;SDS011;1444;49.166;7.312;2023-12-22T06:55:29;26.10;;;4.30;;
2872;SDS011;1444;49.166;7.312;2023-12-22T06:57:57;15.23;;;3.20;;
2872;SDS011;1444;49.166;7.312;2023-12-22T07:00:24;9.87;;;2.67;;
2872;SDS011;1444;49.166;7.312;2023-12-22T07:02:51;17.30;;;3.70;;
2872;SDS011;1444;49.166;7.312;2023-12-22T07:05:33;18.20;;;4.00;;
2872;SDS011;1444;49.166;7.312;2023-12-22T07:08:03;20.83;;;4.17;;
2872;SDS011;1444;49.166;7.312;2023-12-22T07:10:31;8.60;;;3.07;;
2872;SDS011;1444;49.166;7.312;2023-12-22T07:12:59;15.90;;;3.83;;
2872;SDS011;1444;49.166;7.312;2023-12-22T07:15:26;32.97;;;4.50;;
2872;SDS011;1444;49.166;7.312;2023-12-22T07:17:53;12.57;;;2.60;;
2872;SDS011;1444;49.166;7.312;2023-12-22T07:20:20;15.70;;;4.23;;
2872;SDS011;1444;49.166;7.312;2023-12-22T07:22:47;20.13;;;3.80;;
2872;SDS011;1444;49.166;7.312;2023-12-22T07:25:14;10.90;;;2.90;;
2872;SDS011;1444;49.166;7.312;2023-12-22T07:27:40;8.60;;;3.00;;
2872;SDS011;1444;49.166;7.312;2023-12-22T07:30:09;19.63;;;5.10;;
2872;SDS011;1444;49.166;7.312;2023-12-22T07:32:41;22.73;;;3.53;;
2872;SDS011;1444;49.166;7.312;2023-12-22T07:35:09;17.60;;;3.20;;
2872;SDS011;1444;49.166;7.312;2023-12-22T07:37:36;29.20;;;4.20;;
2872;SDS011;1444;49.166;7.312;2023-12-22T07:40:03;38.80;;;5.27;;
2872;SDS011;1444;49.166;7.312;2023-12-22T07:42:30;11.63;;;3.20;;
2872;SDS011;1444;49.166;7.312;2023-12-22T07:44:57;10.37;;;2.87;;
2872;SDS011;1444;49.166;7.312;2023-12-22T07:47:25;17.27;;;4.60;;
2872;SDS011;1444;49.166;7.312;2023-12-22T07:49:52;16.33;;;4.43;;
2872;SDS011;1444;49.166;7.312;2023-12-22T07:52:19;9.17;;;3.00;;
2872;SDS011;1444;49.166;7.312;2023-12-22T07:54:46;9.30;;;2.13;;
2872;SDS011;1444;49.166;7.312;2023-12-22T07:57:13;12.20;;;2.77;;
2872;SDS011;1444;49.166;7.312;2023-12-22T07:59:40;6.83;;;2.80;;
2872;SDS011;1444;49.166;7.312;2023-12-22T08:02:07;7.03;;;1.97;;
2872;SDS011;1444;49.166;7.312;2023-12-22T08:04:36;4.70;;;1.73;;
2872;SDS011;1444;49.166;7.312;2023-12-22T08:07:02;9.23;;;3.00;;
2872;SDS011;1444;49.166;7.312;2023-12-22T08:09:29;16.33;;;3.00;;
2872;SDS011;1444;49.166;7.312;2023-12-22T08:11:57;9.93;;;2.40;;
2872;SDS011;1444;49.166;7.312;2023-12-22T08:14:24;9.97;;;2.57;;
2872;SDS011;1444;49.166;7.312;2023-12-22T08:16:51;6.27;;;2.50;;
2872;SDS011;1444;49.166;7.312;2023-12-22T08:19:18;12.57;;;5.03;;
2872;SDS011;1444;49.166;7.312;2023-12-22T08:21:47;9.27;;;2.97;;
2872;SDS011;1444;49.166;7.312;2023-12-22T08:24:14;11.67;;;3.27;;
2872;SDS011;1444;49.166;7.312;2023-12-22T08:26:40;18.23;;;2.57;;
2872;SDS011;1444;49.166;7.312;2023-12-22T08:29:07;7.10;;;1.57;;
2872;SDS011;1444;49.166;7.312;2023-12-22T08:31:34;10.73;;;3.00;;
2872;SDS011;1444;49.166;7.312;2023-12-22T08:34:01;26.67;;;2.83;;
2872;SDS011;1444;49.166;7.312;2023-12-22T08:36:28;23.40;;;3.10;;
2872;SDS011;1444;49.166;7.312;2023-12-22T08:38:56;9.20;;;2.53;;
2872;SDS011;1444;49.166;7.312;2023-12-22T08:41:24;54.10;;;3.07;;
2872;SDS011;1444;49.166;7.312;2023-12-22T08:43:51;8.20;;;1.77;;
2872;SDS011;1444;49.166;7.312;2023-12-22T08:46:19;17.43;;;3.37;;
2872;SDS011;1444;49.166;7.312;2023-12-22T08:48:45;16.93;;;2.50;;
2872;SDS011;1444;49.166;7.312;2023-12-22T08:51:12;16.03;;;3.10;;
2872;SDS011;1444;49.166;7.312;2023-12-22T08:53:40;12.07;;;2.83;;
2872;SDS011;1444;49.166;7.312;2023-12-22T08:56:08;12.50;;;2.80;;
2872;SDS011;1444;49.166;7.312;2023-12-22T08:58:35;11.93;;;3.17;;
2872;SDS011;1444;49.166;7.312;2023-12-22T09:01:01;16.17;;;2.63;;
2872;SDS011;1444;49.166;7.312;2023-12-22T09:03:30;11.93;;;3.50;;
2872;SDS011;1444;49.166;7.312;2023-12-22T09:06:00;13.43;;;2.60;;
2872;SDS011;1444;49.166;7.312;2023-12-22T09:08:27;16.63;;;3.83;;
2872;SDS011;1444;49.166;7.312;2023-12-22T09:10:54;9.87;;;3.43;;
2872;SDS011;1444;49.166;7.312;2023-12-22T09:13:22;10.83;;;3.60;;
2872;SDS011;1444;49.166;7.312;2023-12-22T09:15:49;10.23;;;2.20;;
2872;SDS011;1444;49.166;7.312;2023-12-22T09:18:16;17.13;;;3.70;;
2872;SDS011;1444;49.166;7.312;2023-12-22T09:20:43;15.73;;;3.23;;
2872;SDS011;1444;49.166;7.312;2023-12-22T09:23:10;6.53;;;2.03;;
2872;SDS011;1444;49.166;7.312;2023-12-22T09:25:37;17.93;;;3.17;;
2872;SDS011;1444;49.166;7.312;2023-12-22T09:28:04;15.23;;;3.17;;
2872;SDS011;1444;49.166;7.312;2023-12-22T09:30:33;9.00;;;3.00;;
2872;SDS011;1444;49.166;7.312;2023-12-22T09:33:00;8.53;;;2.10;;
2872;SDS011;1444;49.166;7.312;2023-12-22T09:35:27;14.23;;;3.60;;
2872;SDS011;1444;49.166;7.312;2023-12-22T09:37:54;9.03;;;3.33;;
2872;SDS011;1444;49.166;7.312;2023-12-22T09:40:20;6.50;;;2.40;;
2872;SDS011;1444;49.166;7.312;2023-12-22T09:42:48;7.63;;;3.07;;
2872;SDS011;1444;49.166;7.312;2023-12-22T09:45:16;17.53;;;2.10;;
2872;SDS011;1444;49.166;7.312;2023-12-22T09:47:46;14.93;;;3.43;;
2872;SDS011;1444;49.166;7.312;2023-12-22T09:50:14;9.40;;;2.53;;
2872;SDS011;1444;49.166;7.312;2023-12-22T09:52:41;11.17;;;4.27;;
2872;SDS011;1444;49.166;7.312;2023-12-22T09:55:10;13.77;;;2.37;;
2872;SDS011;1444;49.166;7.312;2023-12-22T09:57:38;6.47;;;3.70;;
2872;SDS011;1444;49.166;7.312;2023-12-22T10:00:06;18.73;;;2.83;;
2872;SDS011;1444;49.166;7.312;2023-12-22T10:02:36;7.77;;;2.00;;
2872;SDS011;1444;49.166;7.312;2023-12-22T10:05:04;15.73;;;2.73;;
2872;SDS011;1444;49.166;7.312;2023-12-22T10:07:32;2.37;;;1.57;;
2872;SDS011;1444;49.166;7.312;2023-12-22T10:10:00;10.93;;;3.57;;
2872;SDS011;1444;49.166;7.312;2023-12-22T10:12:27;6.70;;;2.10;;
2872;SDS011;1444;49.166;7.312;2023-12-22T10:14:56;5.97;;;1.67;;
2872;SDS011;1444;49.166;7.312;2023-12-22T10:17:26;3.90;;;1.60;;
2872;SDS011;1444;49.166;7.312;2023-12-22T10:19:54;7.17;;;2.20;;
2872;SDS011;1444;49.166;7.312;2023-12-22T10:22:22;2.70;;;1.43;;
2872;SDS011;1444;49.166;7.312;2023-12-22T10:24:49;4.07;;;1.17;;
2872;SDS011;1444;49.166;7.312;2023-12-22T10:27:17;12.97;;;2.57;;
2872;SDS011;1444;49.166;7.312;2023-12-22T10:29:47;4.57;;;1.57;;
2872;SDS011;1444;49.166;7.312;2023-12-22T10:32:14;9.80;;;1.50;;
2872;SDS011;1444;49.166;7.312;2023-12-22T10:34:41;9.23;;;1.80;;
2872;SDS011;1444;49.166;7.312;2023-12-22T10:37:09;8.50;;;2.03;;
2872;SDS011;1444;49.166;7.312;2023-12-22T10:39:39;4.40;;;1.83;;
2872;SDS011;1444;49.166;7.312;2023-12-22T10:42:06;12.20;;;1.73;;
2872;SDS011;1444;49.166;7.312;2023-12-22T10:44:34;4.57;;;1.67;;
2872;SDS011;1444;49.166;7.312;2023-12-22T10:47:01;4.47;;;1.43;;
2872;SDS011;1444;49.166;7.312;2023-12-22T10:49:28;13.33;;;1.30;;
2872;SDS011;1444;49.166;7.312;2023-12-22T10:51:57;4.87;;;1.47;;
2872;SDS011;1444;49.166;7.312;2023-12-22T10:54:24;5.60;;;1.93;;
2872;SDS011;1444;49.166;7.312;2023-12-22T10:56:53;3.40;;;1.00;;
2872;SDS011;1444;49.166;7.312;2023-12-22T10:59:23;3.10;;;1.77;;
2872;SDS011;1444;49.166;7.312;2023-12-22T11:01:56;4.73;;;1.20;;
2872;SDS011;1444;49.166;7.312;2023-12-22T11:04:25;2.60;;;1.03;;
2872;SDS011;1444;49.166;7.312;2023-12-22T11:06:58;3.80;;;0.90;;
2872;SDS011;1444;49.166;7.312;2023-12-22T11:09:29;3.30;;;0.83;;
2872;SDS011;1444;49.166;7.312;2023-12-22T11:11:59;7.13;;;1.33;;
2872;SDS011;1444;49.166;7.312;2023-12-22T11:14:27;1.50;;;0.70;;
2872;SDS011;1444;49.166;7.312;2023-12-22T11:16:57;13.17;;;2.03;;
2872;SDS011;1444;49.166;7.312;2023-12-22T11:19:26;2.13;;;0.83;;
2872;SDS011;1444;49.166;7.312;2023-12-22T11:21:54;5.13;;;1.37;;
2872;SDS011;1444;49.166;7.312;2023-12-22T11:24:24;1.70;;;0.83;;
2872;SDS011;1444;49.166;7.312;2023-12-22T11:26:54;3.60;;;1.40;;
2872;SDS011;1444;49.166;7.312;2023-12-22T11:29:25;14.53;;;1.83;;
2872;SDS011;1444;49.166;7.312;2023-12-22T11:31:52;10.73;;;1.37;;
2872;SDS011;1444;49.166;7.312;2023-12-22T11:34:22;2.93;;;0.87;;
2872;SDS011;1444;49.166;7.312;2023-12-22T11:36:50;8.50;;;1.33;;
2872;SDS011;1444;49.166;7.312;2023-12-22T11:39:20;1.47;;;0.60;;
2872;SDS011;1444;49.166;7.312;2023-12-22T11:41:47;2.00;;;0.90;;
2872;SDS011;1444;49.166;7.312;2023-12-22T11:44:16;3.30;;;1.20;;
2872;SDS011;1444;49.166;7.312;2023-12-22T11:46:45;1.87;;;1.00;;
2872;SDS011;1444;49.166;7.312;2023-12-22T11:49:12;1.80;;;0.77;;
2872;SDS011;1444;49.166;7.312;2023-12-22T11:51:39;3.13;;;1.20;;
2872;SDS011;1444;49.166;7.312;2023-12-22T11:57:07;6.23;;;1.50;;
2872;SDS011;1444;49.166;7.312;2023-12-22T11:59:57;1.60;;;1.00;;
2872;SDS011;1444;49.166;7.312;2023-12-22T12:02:27;4.33;;;1.13;;
2872;SDS011;1444;49.166;7.312;2023-12-22T12:04:57;3.90;;;1.00;;
2872;SDS011;1444;49.166;7.312;2023-12-22T12:07:41;2.90;;;0.90;;
2872;SDS011;1444;49.166;7.312;2023-12-22T12:10:13;1.70;;;0.90;;
2872;SDS011;1444;49.166;7.312;2023-12-22T12:13:22;1.60;;;0.80;;
2872;SDS011;1444;49.166;7.312;2023-12-22T12:15:50;1.90;;;0.80;;
2872;SDS011;1444;49.166;7.312;2023-12-22T12:18:22;2.47;;;1.13;;
2872;SDS011;1444;49.166;7.312;2023-12-22T12:20:49;9.27;;;1.50;;
2872;SDS011;1444;49.166;7.312;2023-12-22T12:23:17;1.50;;;0.70;;
2872;SDS011;1444;49.166;7.312;2023-12-22T12:25:43;2.77;;;1.07;;
2872;SDS011;1444;49.166;7.312;2023-12-22T12:28:10;1.70;;;0.70;;
2872;SDS011;1444;49.166;7.312;2023-12-22T12:30:38;1.90;;;1.10;;
2872;SDS011;1444;49.166;7.312;2023-12-22T12:33:06;3.93;;;0.70;;
2872;SDS011;1444;49.166;7.312;2023-12-22T12:35:37;1.97;;;0.90;;
2872;SDS011;1444;49.166;7.312;2023-12-22T12:38:04;22.37;;;2.53;;
2872;SDS011;1444;49.166;7.312;2023-12-22T12:40:31;2.90;;;1.10;;
2872;SDS011;1444;49.166;7.312;2023-12-22T12:43:00;4.90;;;1.10;;
2872;SDS011;1444;49.166;7.312;2023-12-22T12:45:28;3.50;;;1.43;;
2872;SDS011;1444;49.166;7.312;2023-12-22T12:47:55;2.20;;;0.80;;
2872;SDS011;1444;49.166;7.312;2023-12-22T12:50:23;1.70;;;0.90;;
2872;SDS011;1444;49.166;7.312;2023-12-22T12:52:52;9.70;;;1.40;;
2872;SDS011;1444;49.166;7.312;2023-12-22T12:55:20;1.53;;;0.73;;
2872;SDS011;1444;49.166;7.312;2023-12-22T12:57:48;2.03;;;0.97;;
2872;SDS011;1444;49.166;7.312;2023-12-22T13:00:15;6.10;;;1.17;;
2872;SDS011;1444;49.166;7.312;2023-12-22T13:02:43;2.90;;;0.80;;
2872;SDS011;1444;49.166;7.312;2023-12-22T13:05:19;4.73;;;0.80;;
2872;SDS011;1444;49.166;7.312;2023-12-22T13:07:46;15.60;;;1.80;;
2872;SDS011;1444;49.166;7.312;2023-12-22T13:10:20;2.77;;;0.90;;
2872;SDS011;1444;49.166;7.312;2023-12-22T13:12:48;9.40;;;1.23;;
2872;SDS011;1444;49.166;7.312;2023-12-22T13:15:16;1.50;;;0.60;;
2872;SDS011;1444;49.166;7.312;2023-12-22T13:17:43;1.67;;;0.73;;
2872;SDS011;1444;49.166;7.312;2023-12-22T13:20:10;5.97;;;0.97;;
2872;SDS011;1444;49.166;7.312;2023-12-22T13:22:38;9.90;;;1.07;;
2872;SDS011;1444;49.166;7.312;2023-12-22T13:25:05;2.17;;;0.70;;
2872;SDS011;1444;49.166;7.312;2023-12-22T13:27:44;1.80;;;0.80;;
2872;SDS011;1444;49.166;7.312;2023-12-22T13:30:12;5.00;;;0.83;;
2872;SDS011;1444;49.166;7.312;2023-12-22T13:32:39;8.27;;;3.80;;
2872;SDS011;1444;49.166;7.312;2023-12-22T13:35:07;1.70;;;0.60;;
2872;SDS011;1444;49.166;7.312;2023-12-22T13:37:34;1.50;;;0.60;;
2872;SDS011;1444;49.166;7.312;2023-12-22T13:40:07;9.63;;;1.33;;
2872;SDS011;1444;49.166;7.312;2023-12-22T13:42:35;3.07;;;0.80;;
2872;SDS011;1444;49.166;7.312;2023-12-22T13:45:04;1.53;;;0.57;;
2872;SDS011;1444;49.166;7.312;2023-12-22T13:47:39;8.77;;;1.33;;
2872;SDS011;1444;49.166;7.312;2023-12-22T13:50:12;1.80;;;0.80;;
2872;SDS011;1444;49.166;7.312;2023-12-22T13:52:40;2.43;;;0.90;;
2872;SDS011;1444;49.166;7.312;2023-12-22T13:55:09;5.70;;;1.10;;
2872;SDS011;1444;49.166;7.312;2023-12-22T13:57:37;1.53;;;0.70;;
2872;SDS011;1444;49.166;7.312;2023-12-22T14:02:54;2.83;;;0.70;;
2872;SDS011;1444;49.166;7.312;2023-12-22T14:05:21;1.60;;;0.80;;
2872;SDS011;1444;49.166;7.312;2023-12-22T14:07:48;10.90;;;1.40;;
2872;SDS011;1444;49.166;7.312;2023-12-22T14:10:15;6.27;;;0.90;;
2872;SDS011;1444;49.166;7.312;2023-12-22T14:12:43;1.50;;;0.60;;
2872;SDS011;1444;49.166;7.312;2023-12-22T14:15:10;2.27;;;0.90;;
2872;SDS011;1444;49.166;7.312;2023-12-22T14:17:39;8.70;;;1.10;;
2872;SDS011;1444;49.166;7.312;2023-12-22T14:20:07;4.20;;;1.00;;
2872;SDS011;1444;49.166;7.312;2023-12-22T14:22:35;1.60;;;0.70;;
2872;SDS011;1444;49.166;7.312;2023-12-22T14:25:02;2.00;;;0.90;;
2872;SDS011;1444;49.166;7.312;2023-12-22T14:27:29;1.50;;;0.60;;
2872;SDS011;1444;49.166;7.312;2023-12-22T14:29:56;3.13;;;0.80;;
2872;SDS011;1444;49.166;7.312;2023-12-22T14:32:24;2.17;;;0.93;;
2872;SDS011;1444;49.166;7.312;2023-12-22T14:34:53;1.50;;;0.67;;
2872;SDS011;1444;49.166;7.312;2023-12-22T14:37:19;1.70;;;0.80;;
2872;SDS011;1444;49.166;7.312;2023-12-22T14:39:46;3.23;;;0.90;;
2872;SDS011;1444;49.166;7.312;2023-12-22T14:42:13;3.30;;;1.00;;
2872;SDS011;1444;49.166;7.312;2023-12-22T14:44:40;3.30;;;0.70;;
2872;SDS011;1444;49.166;7.312;2023-12-22T14:47:07;1.60;;;0.70;;
2872;SDS011;1444;49.166;7.312;2023-12-22T14:49:34;5.43;;;1.10;;
2872;SDS011;1444;49.166;7.312;2023-12-22T14:52:03;1.50;;;0.60;;
2872;SDS011;1444;49.166;7.312;2023-12-22T14:54:30;1.90;;;0.80;;
2872;SDS011;1444;49.166;7.312;2023-12-22T14:56:57;2.37;;;1.10;;
2872;SDS011;1444;49.166;7.312;2023-12-22T14:59:24;1.50;;;0.60;;
2872;SDS011;1444;49.166;7.312;2023-12-22T15:01:50;1.90;;;0.90;;
2872;SDS011;1444;49.166;7.312;2023-12-22T15:04:17;1.60;;;0.60;;
2872;SDS011;1444;49.166;7.312;2023-12-22T15:06:45;1.70;;;0.70;;
2872;SDS011;1444;49.166;7.312;2023-12-22T15:09:14;1.90;;;0.87;;
2872;SDS011;1444;49.166;7.312;2023-12-22T15:11:42;5.20;;;1.67;;
2872;SDS011;1444;49.166;7.312;2023-12-22T15:14:09;3.20;;;1.80;;
2872;SDS011;1444;49.166;7.312;2023-12-22T15:16:39;3.10;;;1.20;;
2872;SDS011;1444;49.166;7.312;2023-12-22T15:19:09;1.97;;;1.37;;
2872;SDS011;1444;49.166;7.312;2023-12-22T15:21:36;2.00;;;0.70;;